createdAt,value
2023-03-06T00:00:05.355Z,66.79
2023-03-06T00:00:44.805Z,66.93
2023-03-06T00:01:18.496Z,66.73
2023-03-06T00:01:50.726Z,66.09
2023-03-06T00:02:22.460Z,66.59
2023-03-06T00:02:54.119Z,67.17
2023-03-06T00:03:28.088Z,66.61
2023-03-06T00:03:59.914Z,67.26
2023-03-06T00:04:31.549Z,66.86
2023-03-06T00:05:03.547Z,66.91
2023-03-06T00:05:35.315Z,66.78
2023-03-06T00:06:07.492Z,66.65
2023-03-06T00:06:39.236Z,67.03
2023-03-06T00:07:10.853Z,66.63
2023-03-06T00:07:43.446Z,67.00
2023-03-06T00:08:15.528Z,66.53
2023-03-06T00:08:47.217Z,66.08
2023-03-06T00:09:18.865Z,66.58
2023-03-06T00:09:50.552Z,66.42
2023-03-06T00:10:25.164Z,66.51
2023-03-06T00:10:57.756Z,66.42
2023-03-06T00:11:29.398Z,66.86
2023-03-06T00:12:01.070Z,66.82
2023-03-06T00:12:32.737Z,66.44
2023-03-06T00:13:08.249Z,66.64
2023-03-06T00:13:39.896Z,66.37
2023-03-06T00:14:11.581Z,66.44
2023-03-06T00:14:43.387Z,66.64
2023-03-06T00:15:15.035Z,66.77
2023-03-06T00:15:47.844Z,66.68
2023-03-06T00:16:19.483Z,66.59
2023-03-06T00:16:55.945Z,66.76
2023-03-06T00:17:28.840Z,67.16
2023-03-06T00:18:02.673Z,66.40
2023-03-06T00:18:34.683Z,66.73
2023-03-06T00:19:06.310Z,66.59
2023-03-06T00:19:37.946Z,66.89
2023-03-06T00:20:11.942Z,67.49
2023-03-06T00:20:45.024Z,67.50
2023-03-06T00:21:16.687Z,67.16
2023-03-06T00:21:48.397Z,67.74
2023-03-06T00:22:20.092Z,67.30
2023-03-06T00:22:51.756Z,67.38
2023-03-06T00:23:23.401Z,67.08
2023-03-06T00:23:55.085Z,66.80
2023-03-06T00:24:26.759Z,67.05
2023-03-06T00:24:58.591Z,66.80
2023-03-06T00:25:30.651Z,66.44
2023-03-06T00:26:02.519Z,66.51
2023-03-06T00:26:35.678Z,66.65
2023-03-06T00:27:07.355Z,66.07
2023-03-06T00:27:39.098Z,66.96
2023-03-06T00:28:12.293Z,66.65
2023-03-06T00:28:44.275Z,67.40
2023-03-06T00:29:15.909Z,66.72
2023-03-06T00:29:49.783Z,66.57
2023-03-06T00:30:23.425Z,66.76
2023-03-06T00:30:55.077Z,66.81
2023-03-06T00:31:26.743Z,66.78
2023-03-06T00:31:58.437Z,66.47
2023-03-06T00:32:30.098Z,66.70
2023-03-06T00:33:01.801Z,66.71
2023-03-06T00:33:33.457Z,66.72
2023-03-06T00:34:05.139Z,66.52
2023-03-06T00:34:36.825Z,66.92
2023-03-06T00:35:08.799Z,66.86
2023-03-06T00:35:41.617Z,66.14
2023-03-06T00:36:13.280Z,66.82
2023-03-06T00:36:44.980Z,66.52
2023-03-06T00:37:16.635Z,66.36
2023-03-06T00:37:48.344Z,66.76
2023-03-06T00:38:20.105Z,66.24
2023-03-06T00:38:51.775Z,66.41
2023-03-06T00:39:23.623Z,66.73
2023-03-06T00:39:55.448Z,66.49
2023-03-06T00:40:27.470Z,66.61
2023-03-06T00:40:59.836Z,66.58
2023-03-06T00:41:31.492Z,66.11
2023-03-06T00:42:03.133Z,66.42
2023-03-06T00:42:34.859Z,66.96
2023-03-06T00:43:06.554Z,66.83
2023-03-06T00:43:38.533Z,67.10
2023-03-06T00:44:10.189Z,67.16
2023-03-06T00:44:42.137Z,66.86
2023-03-06T00:45:14.497Z,66.74
2023-03-06T00:45:46.179Z,66.98
2023-03-06T00:46:17.884Z,67.18
2023-03-06T00:46:49.573Z,66.70
2023-03-06T00:47:21.364Z,66.91
2023-03-06T00:47:53.035Z,67.13
2023-03-06T00:48:24.721Z,67.14
2023-03-06T00:48:56.453Z,66.96
2023-03-06T00:49:28.089Z,67.07
2023-03-06T00:49:59.765Z,66.57
2023-03-06T00:50:31.396Z,66.90
2023-03-06T00:51:03.083Z,66.79
2023-03-06T00:51:34.792Z,67.43
2023-03-06T00:52:06.475Z,67.25
2023-03-06T00:52:38.408Z,67.25
2023-03-06T00:53:11.125Z,67.00
2023-03-06T00:53:42.848Z,66.44
2023-03-06T00:54:14.699Z,66.80
2023-03-06T00:54:46.377Z,66.97
2023-03-06T00:55:18.107Z,67.33
2023-03-06T00:55:50.797Z,66.76
2023-03-06T00:56:22.505Z,67.09
2023-03-06T00:56:54.185Z,67.36
2023-03-06T00:57:25.993Z,66.84
2023-03-06T00:57:57.676Z,66.87
2023-03-06T00:58:29.345Z,66.70
2023-03-06T00:59:01.002Z,66.24
2023-03-06T00:59:32.641Z,66.63
2023-03-06T01:00:06.210Z,66.22
2023-03-06T01:00:38.483Z,66.22
2023-03-06T01:01:10.217Z,66.02
2023-03-06T01:01:42.119Z,66.82
2023-03-06T01:02:13.873Z,66.78
2023-03-06T01:02:45.572Z,67.10
2023-03-06T01:03:17.291Z,66.72
2023-03-06T01:03:48.979Z,66.39
2023-03-06T01:04:21.120Z,66.11
2023-03-06T01:04:52.747Z,66.19
2023-03-06T01:05:24.898Z,66.08
2023-03-06T01:05:56.704Z,66.31
2023-03-06T01:06:28.386Z,65.93
2023-03-06T01:07:00.033Z,65.72
2023-03-06T01:07:34.068Z,66.12
2023-03-06T01:08:06.742Z,66.17
2023-03-06T01:08:38.527Z,66.23
2023-03-06T01:09:10.265Z,66.18
2023-03-06T01:09:41.920Z,66.27
2023-03-06T01:10:13.689Z,65.94
2023-03-06T01:10:45.357Z,66.02
2023-03-06T01:11:17.021Z,65.60
2023-03-06T01:11:48.664Z,65.89
2023-03-06T01:12:22.841Z,65.49
2023-03-06T01:12:55.283Z,66.02
2023-03-06T01:13:27.016Z,66.02
2023-03-06T01:13:58.665Z,65.49
2023-03-06T01:14:31.490Z,65.41
2023-03-06T01:15:04.507Z,65.32
2023-03-06T01:15:36.555Z,65.07
2023-03-06T01:16:13.786Z,65.28
2023-03-06T01:16:46.732Z,65.00
2023-03-06T01:17:18.418Z,64.96
2023-03-06T01:17:56.586Z,64.75
2023-03-06T01:18:28.212Z,64.75
2023-03-06T01:19:00.016Z,64.37
2023-03-06T01:19:31.689Z,64.80
2023-03-06T01:20:04.269Z,64.25
2023-03-06T01:20:35.908Z,63.91
2023-03-06T01:21:07.924Z,63.91
2023-03-06T01:21:39.904Z,63.93
2023-03-06T01:22:11.584Z,63.69
2023-03-06T01:22:43.502Z,63.61
2023-03-06T01:23:15.173Z,63.46
2023-03-06T01:23:47.497Z,63.72
2023-03-06T01:24:19.123Z,63.05
2023-03-06T01:24:50.758Z,64.06
2023-03-06T01:25:25.177Z,63.65
2023-03-06T01:25:57.200Z,63.90
2023-03-06T01:26:28.902Z,63.98
2023-03-06T01:27:00.556Z,63.74
2023-03-06T01:27:32.441Z,63.50
2023-03-06T01:28:04.182Z,63.57
2023-03-06T01:28:37.782Z,63.69
2023-03-06T01:29:09.780Z,63.45
2023-03-06T01:29:41.638Z,63.80
2023-03-06T01:30:13.675Z,63.81
2023-03-06T01:30:45.299Z,63.95
2023-03-06T01:31:16.990Z,63.67
2023-03-06T01:31:48.735Z,63.53
2023-03-06T01:32:21.488Z,64.00
2023-03-06T01:32:53.200Z,63.57
2023-03-06T01:33:24.935Z,63.22
2023-03-06T01:33:56.647Z,64.34
2023-03-06T01:34:28.331Z,63.86
2023-03-06T01:34:59.996Z,63.58
2023-03-06T01:35:31.707Z,63.73
2023-03-06T01:36:07.132Z,63.52
2023-03-06T01:36:38.907Z,63.99
2023-03-06T01:37:10.596Z,63.67
2023-03-06T01:37:42.537Z,64.05
2023-03-06T01:38:14.769Z,63.75
2023-03-06T01:38:46.413Z,63.75
2023-03-06T01:39:18.085Z,63.53
2023-03-06T01:39:49.985Z,63.78
2023-03-06T01:40:21.810Z,63.55
2023-03-06T01:40:53.478Z,63.96
2023-03-06T01:41:25.140Z,63.32
2023-03-06T01:41:56.798Z,63.45
2023-03-06T01:42:28.477Z,63.94
2023-03-06T01:43:09.650Z,63.80
2023-03-06T01:43:44.215Z,64.01
2023-03-06T01:44:15.883Z,64.16
2023-03-06T01:45:03.524Z,63.26
2023-03-06T01:45:35.197Z,63.83
2023-03-06T01:46:24.903Z,63.30
2023-03-06T01:46:56.617Z,63.35
2023-03-06T01:47:28.637Z,62.98
2023-03-06T01:48:00.285Z,63.84
2023-03-06T01:48:31.930Z,63.65
2023-03-06T01:49:06.556Z,63.42
2023-03-06T01:49:41.187Z,63.25
2023-03-06T01:50:13.228Z,63.61
2023-03-06T01:50:45.048Z,63.04
2023-03-06T01:51:17.367Z,63.54
2023-03-06T01:52:04.697Z,63.74
2023-03-06T01:52:45.500Z,63.57
2023-03-06T01:53:18.611Z,63.16
2023-03-06T01:53:52.390Z,63.31
2023-03-06T01:54:39.352Z,63.74
2023-03-06T01:55:18.122Z,63.64
2023-03-06T01:55:50.161Z,63.48
2023-03-06T01:56:23.591Z,63.37
2023-03-06T01:57:02.276Z,63.32
2023-03-06T01:57:38.531Z,63.88
2023-03-06T01:58:16.015Z,63.52
2023-03-06T01:58:49.641Z,63.35
2023-03-06T01:59:23.861Z,62.78
2023-03-06T02:00:20.739Z,62.87
2023-03-06T02:00:52.772Z,62.82
2023-03-06T02:01:24.701Z,62.77
2023-03-06T02:02:01.689Z,62.97
2023-03-06T02:02:33.652Z,63.67
2023-03-06T02:03:14.925Z,63.30
2023-03-06T02:03:49.912Z,62.79
2023-03-06T02:04:21.796Z,62.92
2023-03-06T02:04:53.419Z,63.70
2023-03-06T02:05:25.270Z,63.03
2023-03-06T02:05:59.342Z,62.84
2023-03-06T02:06:31.010Z,63.80
2023-03-06T02:07:06.528Z,63.47
2023-03-06T02:07:38.755Z,63.96
2023-03-06T02:08:13.940Z,63.06
2023-03-06T02:08:48.955Z,63.68
2023-03-06T02:09:20.765Z,62.99
2023-03-06T02:09:52.472Z,63.23
2023-03-06T02:10:24.459Z,63.11
2023-03-06T02:11:15.614Z,62.93
2023-03-06T02:11:47.506Z,62.71
2023-03-06T02:12:21.904Z,62.74
2023-03-06T02:12:53.670Z,62.77
2023-03-06T02:13:25.431Z,62.88
2023-03-06T02:13:57.682Z,62.66
2023-03-06T02:14:30.189Z,62.95
2023-03-06T02:15:02.342Z,62.13
2023-03-06T02:15:34.021Z,62.07
2023-03-06T02:16:06.737Z,62.31
2023-03-06T02:16:39.078Z,62.04
2023-03-06T02:17:13.894Z,62.06
2023-03-06T02:17:47.598Z,61.71
2023-03-06T02:18:19.257Z,62.15
2023-03-06T02:18:51.579Z,61.74
2023-03-06T02:19:46.272Z,62.38
2023-03-06T02:20:20.948Z,61.62
2023-03-06T02:20:59.500Z,61.73
2023-03-06T02:21:35.552Z,61.52
2023-03-06T02:22:07.323Z,61.55
2023-03-06T02:23:05.953Z,61.31
2023-03-06T02:24:03.596Z,61.46
2023-03-06T02:24:45.788Z,62.18
2023-03-06T02:25:40.963Z,61.71
2023-03-06T02:26:13.649Z,62.52
2023-03-06T02:26:47.665Z,61.96
2023-03-06T02:27:19.965Z,62.02
2023-03-06T02:27:51.648Z,61.69
2023-03-06T02:28:24.090Z,61.56
2023-03-06T02:28:57.588Z,62.13
2023-03-06T02:29:30.336Z,61.77
2023-03-06T02:30:06.821Z,61.80
2023-03-06T02:30:40.098Z,62.44
2023-03-06T02:31:28.076Z,61.74
2023-03-06T02:31:59.854Z,60.93
2023-03-06T02:32:31.523Z,61.33
2023-03-06T02:33:03.572Z,60.89
2023-03-06T02:33:35.228Z,61.40
2023-03-06T02:34:15.831Z,61.23
2023-03-06T02:34:56.052Z,61.64
2023-03-06T02:35:31.350Z,61.75
2023-03-06T02:36:06.406Z,61.77
2023-03-06T02:36:45.540Z,61.82
2023-03-06T02:37:17.356Z,61.25
2023-03-06T02:37:49.962Z,61.79
2023-03-06T02:38:27.746Z,61.79
2023-03-06T02:39:00.038Z,61.29
2023-03-06T02:39:38.005Z,61.76
2023-03-06T02:40:13.475Z,61.13
2023-03-06T02:40:49.664Z,61.38
2023-03-06T02:41:21.309Z,60.64
2023-03-06T02:41:53.015Z,61.30
2023-03-06T02:42:26.637Z,61.26
2023-03-06T02:42:59.737Z,60.62
2023-03-06T02:43:35.848Z,60.65
2023-03-06T02:44:07.742Z,60.14
2023-03-06T02:44:39.413Z,60.44
2023-03-06T02:45:15.107Z,60.05
2023-03-06T02:45:50.119Z,60.11
2023-03-06T02:46:21.814Z,60.81
2023-03-06T02:46:53.532Z,60.46
2023-03-06T02:47:25.251Z,60.31
2023-03-06T02:47:56.912Z,60.54
2023-03-06T02:48:28.610Z,60.05
2023-03-06T02:49:00.262Z,59.98
2023-03-06T02:49:31.887Z,59.83
2023-03-06T02:50:03.756Z,60.21
2023-03-06T02:50:35.444Z,60.19
2023-03-06T02:51:07.087Z,59.73
2023-03-06T02:51:38.724Z,60.22
2023-03-06T02:52:10.393Z,59.37
2023-03-06T02:52:42.025Z,59.89
2023-03-06T02:53:16.433Z,60.06
2023-03-06T02:53:48.112Z,59.78
2023-03-06T02:54:19.888Z,59.97
2023-03-06T02:54:51.593Z,59.36
2023-03-06T02:55:23.453Z,60.10
2023-03-06T02:55:55.129Z,60.11
2023-03-06T02:56:26.902Z,59.60
2023-03-06T02:56:58.559Z,59.89
2023-03-06T02:57:30.254Z,59.61
2023-03-06T02:58:02.419Z,59.58
2023-03-06T02:58:34.135Z,59.98
2023-03-06T02:59:05.791Z,60.14
2023-03-06T02:59:37.458Z,59.67
2023-03-06T03:00:10.398Z,60.03
2023-03-06T03:00:42.318Z,60.28
2023-03-06T03:01:13.991Z,59.64
2023-03-06T03:01:47.769Z,60.35
2023-03-06T03:02:19.551Z,59.59
2023-03-06T03:02:51.745Z,59.77
2023-03-06T03:03:23.401Z,59.41
2023-03-06T03:03:55.066Z,59.60
2023-03-06T03:04:27.950Z,59.50
2023-03-06T03:04:59.651Z,59.72
2023-03-06T03:05:31.960Z,59.85
2023-03-06T03:06:05.831Z,59.61
2023-03-06T03:06:37.627Z,59.93
2023-03-06T03:07:09.298Z,59.64
2023-03-06T03:07:41.122Z,60.00
2023-03-06T03:08:13.004Z,59.96
2023-03-06T03:08:44.825Z,59.95
2023-03-06T03:09:16.656Z,59.73
2023-03-06T03:09:48.402Z,59.84
2023-03-06T03:10:20.201Z,59.45
2023-03-06T03:10:52.130Z,59.68
2023-03-06T03:11:23.787Z,59.61
2023-03-06T03:11:55.681Z,60.14
2023-03-06T03:12:28.732Z,60.33
2023-03-06T03:13:00.466Z,59.93
2023-03-06T03:13:32.901Z,59.97
2023-03-06T03:14:04.508Z,59.78
2023-03-06T03:14:36.166Z,60.23
2023-03-06T03:15:09.011Z,59.83
2023-03-06T03:15:41.281Z,60.27
2023-03-06T03:16:15.545Z,59.40
2023-03-06T03:16:47.405Z,59.56
2023-03-06T03:17:19.048Z,60.02
2023-03-06T03:17:50.733Z,59.40
2023-03-06T03:18:22.358Z,59.83
2023-03-06T03:18:54.069Z,59.84
2023-03-06T03:19:26.013Z,59.46
2023-03-06T03:19:57.795Z,59.44
2023-03-06T03:20:29.446Z,59.55
2023-03-06T03:21:01.562Z,59.35
2023-03-06T03:21:33.221Z,59.69
2023-03-06T03:22:05.030Z,59.59
2023-03-06T03:22:36.748Z,59.68
2023-03-06T03:23:08.401Z,59.44
2023-03-06T03:23:40.731Z,60.24
2023-03-06T03:24:12.395Z,59.35
2023-03-06T03:24:44.321Z,59.20
2023-03-06T03:25:17.315Z,59.90
2023-03-06T03:25:49.040Z,60.12
2023-03-06T03:26:21.933Z,59.85
2023-03-06T03:26:53.617Z,60.18
2023-03-06T03:27:25.312Z,59.59
2023-03-06T03:27:56.966Z,59.69
2023-03-06T03:28:28.736Z,59.93
2023-03-06T03:29:00.432Z,59.98
2023-03-06T03:29:32.707Z,59.53
2023-03-06T03:30:05.000Z,59.92
2023-03-06T03:30:36.644Z,59.34
2023-03-06T03:31:10.238Z,60.15
2023-03-06T03:31:42.023Z,59.47
2023-03-06T03:32:13.691Z,59.94
2023-03-06T03:32:45.523Z,59.91
2023-03-06T03:33:17.171Z,59.94
2023-03-06T03:33:49.069Z,60.25
2023-03-06T03:34:21.690Z,59.97
2023-03-06T03:34:55.469Z,60.28
2023-03-06T03:35:27.189Z,59.80
2023-03-06T03:36:00.959Z,60.34
2023-03-06T03:36:32.599Z,60.19
2023-03-06T03:37:04.668Z,60.28
2023-03-06T03:37:36.538Z,60.68
2023-03-06T03:38:08.266Z,60.14
2023-03-06T03:38:40.132Z,60.48
2023-03-06T03:39:11.912Z,60.02
2023-03-06T03:39:43.653Z,59.65
2023-03-06T03:40:15.295Z,60.56
2023-03-06T03:40:46.951Z,60.43
2023-03-06T03:41:18.770Z,60.35
2023-03-06T03:41:50.422Z,60.01
2023-03-06T03:42:22.374Z,59.60
2023-03-06T03:42:54.035Z,59.79
2023-03-06T03:43:25.695Z,59.72
2023-03-06T03:43:57.324Z,59.77
2023-03-06T03:44:28.991Z,60.12
2023-03-06T03:45:00.634Z,60.94
2023-03-06T03:45:32.289Z,60.58
2023-03-06T03:46:04.410Z,61.21
2023-03-06T03:46:36.519Z,61.30
2023-03-06T03:47:08.227Z,61.38
2023-03-06T03:47:40.518Z,60.87
2023-03-06T03:48:12.352Z,61.87
2023-03-06T03:48:44.153Z,62.09
2023-03-06T03:49:15.908Z,62.39
2023-03-06T03:49:47.671Z,61.95
2023-03-06T03:50:19.518Z,62.03
2023-03-06T03:50:51.249Z,61.73
2023-03-06T03:51:23.205Z,61.69
2023-03-06T03:51:54.848Z,62.03
2023-03-06T03:52:26.505Z,61.72
2023-03-06T03:52:58.124Z,61.63
2023-03-06T03:53:29.768Z,61.50
2023-03-06T03:54:01.386Z,61.95
2023-03-06T03:54:33.041Z,62.24
2023-03-06T03:55:05.570Z,62.09
2023-03-06T03:55:37.428Z,61.64
2023-03-06T03:56:09.110Z,62.21
2023-03-06T03:56:41.758Z,62.58
2023-03-06T03:57:13.413Z,62.29
2023-03-06T03:57:45.081Z,62.67
2023-03-06T03:58:16.791Z,62.13
2023-03-06T03:58:48.619Z,62.14
2023-03-06T03:59:20.969Z,62.59
2023-03-06T03:59:52.790Z,63.32
2023-03-06T04:00:24.515Z,63.41
2023-03-06T04:00:56.256Z,63.65
2023-03-06T04:01:28.129Z,63.51
2023-03-06T04:02:00.119Z,63.93
2023-03-06T04:02:31.814Z,64.27
2023-03-06T04:03:03.547Z,64.54
2023-03-06T04:03:35.379Z,64.23
2023-03-06T04:04:07.286Z,64.34
2023-03-06T04:04:38.972Z,63.86
2023-03-06T04:05:15.518Z,63.94
2023-03-06T04:05:47.305Z,64.39
2023-03-06T04:06:19.611Z,63.89
2023-03-06T04:06:51.465Z,64.67
2023-03-06T04:07:23.085Z,64.19
2023-03-06T04:07:54.770Z,63.89
2023-03-06T04:08:27.093Z,64.24
2023-03-06T04:08:58.926Z,63.96
2023-03-06T04:09:49.267Z,64.25
2023-03-06T04:10:21.056Z,64.02
2023-03-06T04:10:54.306Z,63.54
2023-03-06T04:11:26.014Z,63.55
2023-03-06T04:11:57.672Z,63.70
2023-03-06T04:12:29.341Z,63.58
2023-03-06T04:13:01.116Z,63.15
2023-03-06T04:13:33.179Z,63.40
2023-03-06T04:14:04.890Z,63.62
2023-03-06T04:14:36.602Z,63.80
2023-03-06T04:15:09.106Z,63.62
2023-03-06T04:15:40.744Z,63.84
2023-03-06T04:16:12.489Z,63.60
2023-03-06T04:16:44.260Z,64.01
2023-03-06T04:17:15.923Z,64.01
2023-03-06T04:17:47.761Z,63.56
2023-03-06T04:18:20.806Z,64.20
2023-03-06T04:18:52.448Z,63.63
2023-03-06T04:19:24.336Z,64.15
2023-03-06T04:19:56.003Z,63.59
2023-03-06T04:20:28.247Z,64.13
2023-03-06T04:20:59.884Z,63.75
2023-03-06T04:21:31.573Z,63.90
2023-03-06T04:22:03.237Z,64.31
2023-03-06T04:22:34.887Z,64.29
2023-03-06T04:23:06.519Z,64.25
2023-03-06T04:23:38.231Z,64.62
2023-03-06T04:24:09.876Z,64.49
2023-03-06T04:24:41.531Z,63.84
2023-03-06T04:25:13.289Z,64.58
2023-03-06T04:25:46.328Z,64.53
2023-03-06T04:26:18.040Z,64.41
2023-03-06T04:26:49.693Z,64.54
2023-03-06T04:27:21.350Z,64.50
2023-03-06T04:27:52.983Z,64.67
2023-03-06T04:28:24.993Z,64.41
2023-03-06T04:28:56.696Z,63.86
2023-03-06T04:29:28.401Z,64.45
2023-03-06T04:30:00.158Z,64.25
2023-03-06T04:30:31.908Z,64.23
2023-03-06T04:31:03.732Z,63.74
2023-03-06T04:31:35.429Z,64.33
2023-03-06T04:32:07.313Z,64.34
2023-03-06T04:32:39.048Z,64.31
2023-03-06T04:33:10.704Z,63.75
2023-03-06T04:33:42.328Z,63.98
2023-03-06T04:34:13.973Z,64.91
2023-03-06T04:34:45.617Z,64.37
2023-03-06T04:35:17.448Z,63.96
2023-03-06T04:35:49.224Z,64.63
2023-03-06T04:36:45.160Z,64.14
2023-03-06T04:37:21.532Z,64.37
2023-03-06T04:37:53.264Z,64.56
2023-03-06T04:38:24.917Z,64.03
2023-03-06T04:38:57.014Z,64.74
2023-03-06T04:39:28.706Z,65.09
2023-03-06T04:40:00.361Z,65.05
2023-03-06T04:40:34.700Z,65.03
2023-03-06T04:41:06.429Z,64.66
2023-03-06T04:41:38.948Z,65.20
2023-03-06T04:42:10.733Z,64.92
2023-03-06T04:42:42.353Z,65.58
2023-03-06T04:43:14.091Z,64.89
2023-03-06T04:43:46.324Z,64.69
2023-03-06T04:44:18.011Z,64.79
2023-03-06T04:44:49.639Z,64.60
2023-03-06T04:45:21.385Z,64.55
2023-03-06T04:45:53.108Z,64.76
2023-03-06T04:46:24.770Z,64.83
2023-03-06T04:46:56.421Z,64.84
2023-03-06T04:47:28.305Z,65.23
2023-03-06T04:48:00.630Z,64.92
2023-03-06T04:48:32.424Z,64.90
2023-03-06T04:49:04.258Z,65.11
2023-03-06T04:49:36.152Z,65.72
2023-03-06T04:50:09.035Z,65.54
2023-03-06T04:50:40.921Z,64.88
2023-03-06T04:51:13.652Z,65.83
2023-03-06T04:51:45.267Z,65.70
2023-03-06T04:52:16.871Z,65.63
2023-03-06T04:52:48.690Z,65.69
2023-03-06T04:53:21.364Z,65.61
2023-03-06T04:53:53.033Z,65.36
2023-03-06T04:54:24.776Z,65.35
2023-03-06T04:54:56.424Z,65.08
2023-03-06T04:55:28.898Z,65.11
2023-03-06T04:56:00.545Z,65.27
2023-03-06T04:56:32.223Z,65.16
2023-03-06T04:57:04.880Z,64.92
2023-03-06T04:57:41.231Z,65.02
2023-03-06T04:58:14.963Z,65.40
2023-03-06T04:58:46.629Z,65.84
2023-03-06T04:59:18.347Z,65.23
2023-03-06T04:59:50.693Z,65.03
2023-03-06T05:00:25.237Z,65.42
2023-03-06T05:00:56.931Z,65.67
2023-03-06T05:01:28.600Z,65.15
2023-03-06T05:02:00.287Z,65.32
2023-03-06T05:02:33.411Z,66.11
2023-03-06T05:03:05.124Z,66.25
2023-03-06T05:03:36.787Z,65.79
2023-03-06T05:04:08.474Z,65.88
2023-03-06T05:04:40.139Z,65.71
2023-03-06T05:05:13.701Z,65.34
2023-03-06T05:05:45.335Z,65.30
2023-03-06T05:06:17.080Z,65.13
2023-03-06T05:06:48.700Z,65.30
2023-03-06T05:07:20.358Z,65.43
2023-03-06T05:07:52.682Z,65.42
2023-03-06T05:08:24.388Z,66.23
2023-03-06T05:08:56.058Z,65.84
2023-03-06T05:09:27.742Z,65.52
2023-03-06T05:10:00.501Z,66.12
2023-03-06T05:10:32.209Z,65.99
2023-03-06T05:11:04.078Z,65.70
2023-03-06T05:11:35.774Z,65.49
2023-03-06T05:12:07.669Z,65.94
2023-03-06T05:12:39.560Z,66.04
2023-03-06T05:13:12.372Z,65.33
2023-03-06T05:13:44.161Z,66.38
2023-03-06T05:14:15.797Z,66.06
2023-03-06T05:14:48.157Z,66.53
2023-03-06T05:15:20.233Z,66.20
2023-03-06T05:15:52.234Z,66.08
2023-03-06T05:16:23.935Z,65.76
2023-03-06T05:16:55.646Z,65.18
2023-03-06T05:17:27.292Z,65.63
2023-03-06T05:17:59.176Z,65.92
2023-03-06T05:18:31.412Z,66.02
2023-03-06T05:19:03.404Z,65.69
2023-03-06T05:19:35.037Z,66.33
2023-03-06T05:20:09.696Z,65.87
2023-03-06T05:20:41.374Z,65.91
2023-03-06T05:21:13.443Z,66.17
2023-03-06T05:21:45.098Z,66.25
2023-03-06T05:22:16.763Z,66.07
2023-03-06T05:22:48.438Z,66.04
2023-03-06T05:23:20.086Z,66.53
2023-03-06T05:23:51.706Z,66.39
2023-03-06T05:24:23.374Z,66.30
2023-03-06T05:24:55.001Z,66.73
2023-03-06T05:25:26.686Z,66.70
2023-03-06T05:25:58.383Z,65.96
2023-03-06T05:26:30.079Z,66.20
2023-03-06T05:27:01.742Z,65.95
2023-03-06T05:27:34.316Z,66.27
2023-03-06T05:28:06.902Z,66.05
2023-03-06T05:28:39.053Z,66.42
2023-03-06T05:29:10.733Z,66.83
2023-03-06T05:29:42.392Z,66.67
2023-03-06T05:30:14.957Z,67.29
2023-03-06T05:30:46.874Z,67.71
2023-03-06T05:31:18.702Z,67.36
2023-03-06T05:31:50.468Z,67.32
2023-03-06T05:32:22.947Z,67.81
2023-03-06T05:32:54.731Z,67.92
2023-03-06T05:33:26.708Z,67.54
2023-03-06T05:33:59.205Z,67.57
2023-03-06T05:34:31.054Z,67.33
2023-03-06T05:35:03.659Z,67.25
2023-03-06T05:35:35.395Z,67.55
2023-03-06T05:36:09.272Z,67.98
2023-03-06T05:36:41.336Z,67.34
2023-03-06T05:37:13.057Z,67.73
2023-03-06T05:37:44.962Z,67.34
2023-03-06T05:38:16.952Z,67.55
2023-03-06T05:38:48.784Z,67.76
2023-03-06T05:39:20.966Z,67.47
2023-03-06T05:39:52.687Z,67.44
2023-03-06T05:40:24.456Z,67.63
2023-03-06T05:40:56.183Z,67.62
2023-03-06T05:41:27.915Z,68.07
2023-03-06T05:41:59.744Z,67.58
2023-03-06T05:42:31.403Z,67.76
2023-03-06T05:43:03.056Z,68.09
2023-03-06T05:43:34.694Z,68.01
2023-03-06T05:44:06.324Z,67.26
2023-03-06T05:44:38.060Z,67.18
2023-03-06T05:45:10.457Z,71.86
2023-03-06T05:45:42.146Z,81.51
2023-03-06T05:46:14.254Z,85.04
2023-03-06T05:46:45.914Z,79.76
2023-03-06T05:47:17.615Z,73.27
2023-03-06T05:47:49.272Z,70.10
2023-03-06T05:48:20.907Z,68.71
2023-03-06T05:48:55.368Z,68.39
2023-03-06T05:49:31.201Z,67.88
2023-03-06T05:50:05.382Z,67.33
2023-03-06T05:50:37.038Z,67.44
2023-03-06T05:51:10.907Z,67.20
2023-03-06T05:51:42.689Z,67.30
2023-03-06T05:52:15.020Z,67.75
2023-03-06T05:52:46.658Z,67.12
2023-03-06T05:53:18.311Z,67.00
2023-03-06T05:53:50.084Z,67.53
2023-03-06T05:54:21.819Z,67.55
2023-03-06T05:54:54.664Z,67.71
2023-03-06T05:55:26.331Z,67.39
2023-03-06T05:55:57.904Z,67.28
2023-03-06T05:56:29.575Z,68.17
2023-03-06T05:57:01.958Z,68.00
2023-03-06T05:57:33.700Z,67.99
2023-03-06T05:58:05.347Z,67.35
2023-03-06T05:58:37.967Z,68.22
2023-03-06T05:59:09.611Z,67.59
2023-03-06T05:59:41.268Z,67.24
2023-03-06T06:00:14.862Z,67.50
2023-03-06T06:00:46.641Z,67.18
2023-03-06T06:01:20.629Z,67.25
2023-03-06T06:01:52.268Z,67.99
2023-03-06T06:02:23.885Z,67.92
2023-03-06T06:02:55.621Z,68.20
2023-03-06T06:03:27.537Z,68.10
2023-03-06T06:03:59.204Z,67.60
2023-03-06T06:04:30.952Z,68.16
2023-03-06T06:05:03.686Z,68.36
2023-03-06T06:05:39.548Z,67.84
2023-03-06T06:06:14.395Z,67.75
2023-03-06T06:06:46.056Z,67.64
2023-03-06T06:07:17.760Z,68.09
2023-03-06T06:07:49.539Z,67.54
2023-03-06T06:08:21.563Z,67.71
2023-03-06T06:08:53.861Z,67.62
2023-03-06T06:09:26.154Z,68.03
2023-03-06T06:09:57.821Z,67.45
2023-03-06T06:10:29.470Z,67.52
2023-03-06T06:11:01.547Z,67.41
2023-03-06T06:11:33.215Z,67.60
2023-03-06T06:12:05.178Z,67.93
2023-03-06T06:12:36.868Z,68.04
2023-03-06T06:13:08.949Z,67.90
2023-03-06T06:13:41.994Z,67.06
2023-03-06T06:14:14.813Z,67.58
2023-03-06T06:14:46.480Z,67.46
2023-03-06T06:15:18.177Z,68.11
2023-03-06T06:15:49.886Z,68.25
2023-03-06T06:16:21.591Z,67.48
2023-03-06T06:16:53.714Z,68.20
2023-03-06T06:17:25.393Z,67.99
2023-03-06T06:17:57.657Z,68.18
2023-03-06T06:18:29.332Z,67.64
2023-03-06T06:19:01.039Z,67.34
2023-03-06T06:19:32.819Z,67.44
2023-03-06T06:20:04.830Z,67.25
2023-03-06T06:20:37.871Z,67.32
2023-03-06T06:21:11.760Z,67.17
2023-03-06T06:21:43.411Z,67.50
2023-03-06T06:22:15.145Z,67.88
2023-03-06T06:22:46.838Z,68.18
2023-03-06T06:23:18.536Z,67.74
2023-03-06T06:23:50.166Z,68.00
2023-03-06T06:24:24.787Z,68.44
2023-03-06T06:24:56.464Z,68.62
2023-03-06T06:25:28.131Z,68.24
2023-03-06T06:26:07.184Z,68.31
2023-03-06T06:26:39.833Z,67.88
2023-03-06T06:27:11.534Z,68.28
2023-03-06T06:27:43.193Z,68.22
2023-03-06T06:28:14.851Z,68.17
2023-03-06T06:28:46.491Z,68.37
2023-03-06T06:29:18.151Z,68.07
2023-03-06T06:29:52.772Z,68.04
2023-03-06T06:30:24.735Z,68.33
2023-03-06T06:30:56.947Z,68.14
2023-03-06T06:31:28.729Z,67.40
2023-03-06T06:32:01.210Z,67.52
2023-03-06T06:32:33.001Z,67.97
2023-03-06T06:33:04.685Z,67.46
2023-03-06T06:33:36.296Z,67.41
2023-03-06T06:34:09.803Z,67.63
2023-03-06T06:34:41.453Z,67.65
2023-03-06T06:35:13.149Z,67.59
2023-03-06T06:35:44.811Z,67.40
2023-03-06T06:36:21.120Z,67.92
2023-03-06T06:36:54.426Z,67.56
2023-03-06T06:37:26.196Z,67.79
2023-03-06T06:37:57.860Z,67.79
2023-03-06T06:38:29.575Z,68.30
2023-03-06T06:39:01.496Z,67.93
2023-03-06T06:39:33.159Z,68.52
2023-03-06T06:40:05.358Z,69.05
2023-03-06T06:40:37.088Z,68.56
2023-03-06T06:41:38.866Z,69.20
2023-03-06T06:42:25.283Z,68.88
2023-03-06T06:42:53.895Z,68.67
2023-03-06T06:43:25.545Z,68.71
2023-03-06T06:43:59.077Z,68.66
2023-03-06T06:44:30.834Z,68.13
2023-03-06T06:45:05.183Z,67.63
2023-03-06T06:45:37.442Z,67.50
2023-03-06T06:46:31.467Z,67.63
2023-03-06T06:47:22.874Z,67.37
2023-03-06T06:47:52.419Z,67.11
2023-03-06T06:48:24.133Z,67.40
2023-03-06T06:48:55.974Z,67.29
2023-03-06T06:49:27.625Z,67.19
2023-03-06T06:49:59.315Z,67.32
2023-03-06T06:50:30.960Z,69.51
2023-03-06T06:51:02.615Z,70.58
2023-03-06T06:51:34.625Z,83.35
2023-03-06T06:52:07.485Z,85.38
2023-03-06T06:52:39.507Z,84.83
2023-03-06T06:53:11.136Z,85.74
2023-03-06T06:53:43.017Z,86.32
2023-03-06T06:54:14.703Z,86.24
2023-03-06T06:54:46.463Z,84.98
2023-03-06T06:55:18.124Z,77.16
2023-03-06T06:55:50.159Z,70.53
2023-03-06T06:56:21.854Z,66.18
2023-03-06T06:56:53.800Z,64.28
2023-03-06T06:57:25.444Z,61.36
2023-03-06T06:57:57.105Z,59.92
2023-03-06T06:58:28.795Z,60.76
2023-03-06T06:59:15.571Z,60.98
2023-03-06T06:59:47.683Z,59.68
2023-03-06T07:00:20.051Z,59.45
2023-03-06T07:00:51.747Z,60.30
2023-03-06T07:01:23.465Z,59.22
2023-03-06T07:01:55.148Z,60.19